createdAt,value
2024-02-19T00:02:22.165Z,5.38
2024-02-19T00:05:25.290Z,5.42
2024-02-19T00:08:27.240Z,5.34
2024-02-19T00:11:31.069Z,5.21
2024-02-19T00:14:32.888Z,5.33
2024-02-19T00:17:34.831Z,5.48
2024-02-19T00:20:36.684Z,5.63
2024-02-19T00:23:38.465Z,5.49
2024-02-19T00:26:40.281Z,5.58
2024-02-19T00:29:42.277Z,5.59
2024-02-19T00:32:44.147Z,5.63
2024-02-19T00:35:47.018Z,5.61
2024-02-19T00:38:48.780Z,5.48
2024-02-19T00:41:50.871Z,5.51
2024-02-19T00:44:52.891Z,5.50
2024-02-19T00:47:54.669Z,5.41
2024-02-19T00:50:56.462Z,5.31
2024-02-19T00:53:58.277Z,5.13
2024-02-19T00:57:00.055Z,4.86
2024-02-19T01:00:01.834Z,4.78
2024-02-19T01:03:04.136Z,4.79
2024-02-19T01:06:06.619Z,4.66
2024-02-19T01:09:08.690Z,4.49
2024-02-19T01:12:10.547Z,4.23
2024-02-19T01:15:12.365Z,4.23
2024-02-19T01:18:14.157Z,4.35
2024-02-19T01:21:16.055Z,4.64
2024-02-19T01:24:17.782Z,4.86
2024-02-19T01:27:19.956Z,4.88
2024-02-19T01:30:21.893Z,5.03
2024-02-19T01:33:23.732Z,5.21
2024-02-19T01:36:25.546Z,5.36
2024-02-19T01:39:27.301Z,5.35
2024-02-19T01:42:29.034Z,5.38
2024-02-19T01:45:30.851Z,5.27
2024-02-19T01:48:33.261Z,5.10
2024-02-19T01:51:36.677Z,4.86
2024-02-19T01:54:39.890Z,4.80
2024-02-19T01:57:43.774Z,4.60
2024-02-19T02:00:46.180Z,4.59
2024-02-19T02:03:49.148Z,4.42
2024-02-19T02:06:51.145Z,4.23
2024-02-19T02:09:53.626Z,4.12
2024-02-19T02:12:55.418Z,3.92
2024-02-19T02:16:00.201Z,4.15
2024-02-19T02:19:02.049Z,3.76
2024-02-19T02:22:03.904Z,3.47
2024-02-19T02:25:06.177Z,3.33
2024-02-19T02:28:08.121Z,3.13
2024-02-19T02:31:10.509Z,3.20
2024-02-19T02:34:12.398Z,3.20
2024-02-19T02:37:17.086Z,3.11
2024-02-19T02:40:19.102Z,2.82
2024-02-19T02:43:21.017Z,2.72
2024-02-19T02:46:22.964Z,2.84
2024-02-19T02:49:24.959Z,2.75
2024-02-19T02:52:27.662Z,2.60
2024-02-19T02:55:29.593Z,2.43
2024-02-19T02:58:31.377Z,2.40
2024-02-19T03:01:33.625Z,2.36
2024-02-19T03:04:35.664Z,2.29
2024-02-19T03:07:37.701Z,2.31
2024-02-19T03:10:39.560Z,2.45
2024-02-19T03:13:41.346Z,2.53
2024-02-19T03:16:43.520Z,2.41
2024-02-19T03:19:45.407Z,2.37
2024-02-19T03:22:47.171Z,2.15
2024-02-19T03:25:48.866Z,2.34
2024-02-19T03:28:50.732Z,2.27
2024-02-19T03:31:52.455Z,2.44
2024-02-19T03:34:54.221Z,2.38
2024-02-19T03:37:56.145Z,2.14
2024-02-19T03:40:57.890Z,2.24
2024-02-19T03:44:00.337Z,2.21
2024-02-19T03:47:02.633Z,1.95
2024-02-19T03:50:05.044Z,2.14
2024-02-19T03:53:06.989Z,1.94
2024-02-19T03:56:08.778Z,1.95
2024-02-19T03:59:11.589Z,1.89
2024-02-19T04:02:13.485Z,1.89
2024-02-19T04:05:15.225Z,1.92
2024-02-19T04:08:17.619Z,1.99
2024-02-19T04:11:19.397Z,1.96
2024-02-19T04:14:21.209Z,1.95
2024-02-19T04:17:22.936Z,1.90
2024-02-19T04:20:24.730Z,1.76
2024-02-19T04:23:26.504Z,1.79
2024-02-19T04:26:28.273Z,2.03
2024-02-19T04:29:30.014Z,1.89
2024-02-19T04:32:31.824Z,1.82
2024-02-19T04:35:33.613Z,1.69
2024-02-19T04:38:35.346Z,1.79
2024-02-19T04:41:37.115Z,1.84
2024-02-19T04:44:40.512Z,1.61
2024-02-19T04:47:42.281Z,1.59
2024-02-19T04:50:44.250Z,1.32
2024-02-19T04:53:46.043Z,1.45
2024-02-19T04:56:48.062Z,1.38
2024-02-19T04:59:49.845Z,1.53
2024-02-19T05:02:51.599Z,1.71
2024-02-19T05:05:53.396Z,1.84
2024-02-19T05:08:56.009Z,2.00
2024-02-19T05:11:57.757Z,2.10
2024-02-19T05:14:59.496Z,2.18
2024-02-19T05:18:01.344Z,2.22
2024-02-19T05:21:04.407Z,2.22
2024-02-19T05:24:06.720Z,2.15
2024-02-19T05:27:08.505Z,2.14
2024-02-19T05:30:11.247Z,2.26
2024-02-19T05:33:14.006Z,2.34
2024-02-19T05:36:15.783Z,2.44
2024-02-19T05:39:17.546Z,2.45
2024-02-19T05:42:19.330Z,2.43
2024-02-19T05:45:21.239Z,2.46
2024-02-19T05:48:23.204Z,2.47
2024-02-19T05:51:25.150Z,2.54
2024-02-19T05:54:27.501Z,2.73
2024-02-19T05:57:29.230Z,2.78
2024-02-19T06:00:31.164Z,2.91
2024-02-19T06:03:35.083Z,2.93
2024-02-19T06:06:37.330Z,2.95
2024-02-19T06:09:42.127Z,2.93
2024-02-19T06:12:43.984Z,3.12
2024-02-19T06:15:45.900Z,3.16
2024-02-19T06:18:47.912Z,3.44
2024-02-19T06:21:49.800Z,3.64
2024-02-19T06:24:51.622Z,3.66
2024-02-19T06:27:53.439Z,3.74
2024-02-19T06:30:55.319Z,3.79
2024-02-19T06:33:57.290Z,3.82
2024-02-19T06:36:59.263Z,3.90
2024-02-19T06:40:03.709Z,4.02
2024-02-19T06:43:05.600Z,4.21
2024-02-19T06:46:07.485Z,4.60
2024-02-19T06:49:09.690Z,5.01
2024-02-19T06:52:11.527Z,5.40
2024-02-19T06:55:15.606Z,5.79
2024-02-19T06:58:17.514Z,6.06
2024-02-19T07:01:19.434Z,6.07
2024-02-19T07:04:21.655Z,6.05
2024-02-19T07:07:24.759Z,5.75
2024-02-19T07:10:29.744Z,5.63
2024-02-19T07:13:31.869Z,5.82
2024-02-19T07:16:33.821Z,6.07
2024-02-19T07:19:36.215Z,6.32
2024-02-19T07:22:38.229Z,6.49
2024-02-19T07:25:40.159Z,6.77
2024-02-19T07:28:41.997Z,7.00
2024-02-19T07:31:43.803Z,7.20
2024-02-19T07:34:47.667Z,7.18
2024-02-19T07:37:49.507Z,7.17
2024-02-19T07:40:51.336Z,7.32
2024-02-19T07:43:53.135Z,7.57
2024-02-19T07:46:55.026Z,7.80
2024-02-19T07:49:56.868Z,8.07
2024-02-19T07:52:58.865Z,8.23
2024-02-19T07:56:06.670Z,8.41
2024-02-19T07:59:09.344Z,8.47
2024-02-19T08:02:13.407Z,8.94
2024-02-19T08:05:15.613Z,9.10
2024-02-19T08:08:19.052Z,9.40
2024-02-19T08:11:24.865Z,9.21
2024-02-19T08:14:26.965Z,9.36
2024-02-19T08:17:28.774Z,9.78
2024-02-19T08:20:31.445Z,10.00
2024-02-19T08:23:33.295Z,10.14
2024-02-19T08:26:41.276Z,10.18
2024-02-19T08:29:45.305Z,9.93
2024-02-19T08:32:47.582Z,9.38
2024-02-19T08:35:51.517Z,9.44
2024-02-19T08:38:56.905Z,9.62
2024-02-19T08:41:58.939Z,9.58
2024-02-19T08:45:02.713Z,9.79
2024-02-19T08:48:05.476Z,9.88
2024-02-19T08:51:08.146Z,10.19
2024-02-19T08:54:09.969Z,10.19
2024-02-19T08:57:11.743Z,10.51
2024-02-19T09:00:13.982Z,10.68
2024-02-19T09:03:15.810Z,11.13
2024-02-19T09:06:18.151Z,11.40
2024-02-19T09:09:20.005Z,11.31
2024-02-19T09:12:22.965Z,11.21
2024-02-19T09:15:39.050Z,11.19
2024-02-19T09:18:48.620Z,11.31
2024-02-19T09:21:50.640Z,12.02
2024-02-19T09:24:53.059Z,12.59
2024-02-19T09:27:55.034Z,12.09
2024-02-19T09:30:59.594Z,11.94
2024-02-19T09:34:01.880Z,12.08
2024-02-19T09:38:39.943Z,12.18
2024-02-19T09:41:43.196Z,12.83
2024-02-19T09:44:57.029Z,12.66
2024-02-19T09:48:02.947Z,12.31
2024-02-19T09:51:06.947Z,12.53
2024-02-19T09:54:10.490Z,12.33
2024-02-19T09:57:12.555Z,12.54
2024-02-19T10:00:15.642Z,12.45
2024-02-19T10:03:20.117Z,12.56
2024-02-19T10:06:22.594Z,12.63
2024-02-19T10:09:24.457Z,13.31
2024-02-19T10:12:26.310Z,13.64
2024-02-19T10:15:28.087Z,13.63
2024-02-19T10:18:29.886Z,13.78
2024-02-19T10:21:38.508Z,14.13
2024-02-19T10:24:42.797Z,14.01
2024-02-19T10:28:03.007Z,13.93
2024-02-19T10:31:05.807Z,13.84
2024-02-19T10:34:10.316Z,13.82
2024-02-19T10:37:18.987Z,14.15
2024-02-19T10:40:21.656Z,13.64
2024-02-19T10:43:23.597Z,13.94
2024-02-19T10:46:25.894Z,14.14
2024-02-19T10:49:27.957Z,13.67
2024-02-19T10:52:32.612Z,13.00
2024-02-19T10:55:45.918Z,12.84
2024-02-19T10:59:00.762Z,13.52
2024-02-19T11:02:12.724Z,14.16
2024-02-19T11:05:14.747Z,14.32
2024-02-19T11:08:24.437Z,13.92
2024-02-19T11:11:26.485Z,13.78
2024-02-19T11:14:38.449Z,13.45
2024-02-19T11:17:40.356Z,13.08
2024-02-19T11:20:42.775Z,12.98
2024-02-19T11:23:44.581Z,12.89
2024-02-19T11:26:46.428Z,12.84
2024-02-19T11:29:48.777Z,12.68
2024-02-19T11:33:03.045Z,12.69
2024-02-19T11:36:05.211Z,12.76
2024-02-19T11:39:08.943Z,12.74
2024-02-19T11:42:15.978Z,12.78
2024-02-19T11:45:18.544Z,12.78
2024-02-19T11:48:21.064Z,12.65
2024-02-19T11:51:23.092Z,12.57
2024-02-19T11:54:25.026Z,12.49
2024-02-19T11:57:28.384Z,12.45
2024-02-19T12:00:31.572Z,12.51
2024-02-19T12:03:36.145Z,12.54
2024-02-19T12:06:38.853Z,12.51
2024-02-19T12:09:41.264Z,12.39
2024-02-19T12:12:43.985Z,12.46
2024-02-19T12:15:52.897Z,12.42
2024-02-19T12:18:59.697Z,12.34
2024-02-19T12:22:02.683Z,12.34
2024-02-19T12:25:05.928Z,12.35
2024-02-19T12:28:07.734Z,12.27
2024-02-19T12:31:12.249Z,12.36
2024-02-19T12:34:21.945Z,12.36
2024-02-19T12:37:31.166Z,12.30
2024-02-19T12:40:35.009Z,12.39
2024-02-19T12:43:37.225Z,12.46
2024-02-19T12:46:39.135Z,12.59
2024-02-19T12:49:41.153Z,12.36
2024-02-19T12:52:43.723Z,12.41
2024-02-19T12:55:45.634Z,12.39
2024-02-19T12:58:47.495Z,12.42
2024-02-19T13:01:50.620Z,12.40
2024-02-19T13:04:53.458Z,12.36
2024-02-19T13:07:55.481Z,12.52
2024-02-19T13:10:57.976Z,12.55
2024-02-19T13:14:00.118Z,12.56
2024-02-19T13:17:15.325Z,12.46
2024-02-19T13:20:18.676Z,12.44
2024-02-19T13:23:20.667Z,12.56
2024-02-19T13:26:22.436Z,12.57
2024-02-19T13:29:24.297Z,12.47
2024-02-19T13:32:26.134Z,12.61
2024-02-19T13:35:28.082Z,12.53
2024-02-19T13:38:31.020Z,12.36
2024-02-19T13:41:33.091Z,12.47
2024-02-19T13:44:34.943Z,12.52
2024-02-19T13:47:38.863Z,12.43
2024-02-19T13:50:40.781Z,12.44
2024-02-19T13:53:42.758Z,12.39
2024-02-19T13:56:44.604Z,12.38
2024-02-19T13:59:46.937Z,12.47
2024-02-19T14:02:48.935Z,12.52
2024-02-19T14:05:51.009Z,12.54
2024-02-19T14:08:52.930Z,12.58
2024-02-19T14:11:54.809Z,12.49
2024-02-19T14:15:06.716Z,12.53
2024-02-19T14:18:13.464Z,12.57
2024-02-19T14:21:15.488Z,12.56
2024-02-19T14:24:20.852Z,12.54
2024-02-19T14:28:34.584Z,12.49
2024-02-19T14:31:37.261Z,12.53
2024-02-19T14:34:40.837Z,12.45
2024-02-19T14:37:45.393Z,12.32
2024-02-19T14:41:07.279Z,12.34
2024-02-19T14:44:26.337Z,12.26
2024-02-19T14:47:28.265Z,12.24
2024-02-19T14:50:30.445Z,12.29
2024-02-19T14:53:32.336Z,12.24
2024-02-19T14:56:34.175Z,12.20
2024-02-19T14:59:38.615Z,12.14
2024-02-19T15:02:42.283Z,12.14
2024-02-19T15:05:44.991Z,12.15
2024-02-19T15:08:46.940Z,12.11
2024-02-19T15:11:50.952Z,12.13
2024-02-19T15:14:53.349Z,12.08
2024-02-19T15:17:55.245Z,11.95
2024-02-19T15:20:57.909Z,11.98
2024-02-19T15:24:03.353Z,12.05
2024-02-19T15:27:05.514Z,12.05
2024-02-19T15:30:07.853Z,11.97
2024-02-19T15:33:09.809Z,11.90
2024-02-19T15:36:11.830Z,11.80
2024-02-19T15:39:15.198Z,11.71
2024-02-19T15:42:17.060Z,11.66
2024-02-19T15:45:19.040Z,11.52
2024-02-19T15:48:20.875Z,11.47
2024-02-19T15:51:25.254Z,11.51
2024-02-19T15:54:27.065Z,11.54
2024-02-19T15:57:29.252Z,11.59
2024-02-19T16:00:33.439Z,11.63
2024-02-19T16:03:37.089Z,11.58
2024-02-19T16:06:39.108Z,11.60
2024-02-19T16:09:41.020Z,11.58
2024-02-19T16:12:42.801Z,11.54
2024-02-19T16:15:44.832Z,11.49
2024-02-19T16:18:47.039Z,11.39
2024-02-19T16:21:50.358Z,11.32
2024-02-19T16:24:52.156Z,11.31
2024-02-19T16:27:54.533Z,11.29
2024-02-19T16:30:56.821Z,11.22
2024-02-19T16:33:59.284Z,11.19
2024-02-19T16:37:01.203Z,11.14
2024-02-19T16:40:03.719Z,11.00
2024-02-19T16:43:06.729Z,10.89
2024-02-19T16:46:08.736Z,10.89
2024-02-19T16:49:10.786Z,10.63
2024-02-19T16:52:13.640Z,10.57
2024-02-19T16:55:15.841Z,10.49
2024-02-19T16:58:18.465Z,10.42
2024-02-19T17:01:20.560Z,10.49
2024-02-19T17:04:22.698Z,10.52
2024-02-19T17:07:24.754Z,10.50
2024-02-19T17:10:26.633Z,10.49
2024-02-19T17:13:28.617Z,10.41
2024-02-19T17:16:31.193Z,10.39
2024-02-19T17:19:33.341Z,10.42
2024-02-19T17:22:35.339Z,10.38
2024-02-19T17:25:37.204Z,10.43
2024-02-19T17:28:39.228Z,10.42
2024-02-19T17:31:41.228Z,10.25
2024-02-19T17:34:44.210Z,10.23
2024-02-19T17:37:46.183Z,10.02
2024-02-19T17:40:48.357Z,10.03
2024-02-19T17:43:50.501Z,10.08
2024-02-19T17:46:53.503Z,10.09
2024-02-19T17:49:55.359Z,10.02
2024-02-19T17:52:57.162Z,9.97
2024-02-19T17:55:58.950Z,9.91
2024-02-19T17:59:01.041Z,9.86
2024-02-19T18:02:04.964Z,9.70
2024-02-19T18:05:07.193Z,9.66
2024-02-19T18:08:08.966Z,9.56
2024-02-19T18:11:13.794Z,9.61
2024-02-19T18:14:16.217Z,9.69
2024-02-19T18:17:18.368Z,9.58
2024-02-19T18:20:21.041Z,9.59
2024-02-19T18:23:27.690Z,9.51
2024-02-19T18:26:29.622Z,9.28
2024-02-19T18:29:33.942Z,9.19
2024-02-19T18:32:41.237Z,9.20
2024-02-19T18:35:45.619Z,9.27
2024-02-19T18:38:48.735Z,9.30
2024-02-19T18:41:52.283Z,9.14
2024-02-19T18:44:54.089Z,9.13
2024-02-19T18:47:56.351Z,9.11
2024-02-19T18:50:59.375Z,9.24
2024-02-19T18:54:01.628Z,9.23
2024-02-19T18:57:07.956Z,9.27
2024-02-19T19:00:10.358Z,9.33
2024-02-19T19:03:12.259Z,9.35
2024-02-19T19:06:14.557Z,9.26
2024-02-19T19:09:16.481Z,9.23
2024-02-19T19:12:19.098Z,9.16
2024-02-19T19:15:21.541Z,9.08
2024-02-19T19:18:23.485Z,9.08
2024-02-19T19:21:25.420Z,8.97
2024-02-19T19:24:27.254Z,8.93
2024-02-19T19:27:30.199Z,8.92
2024-02-19T19:30:32.042Z,8.88
2024-02-19T19:33:34.342Z,8.78
2024-02-19T19:36:38.949Z,8.70
2024-02-19T19:39:40.726Z,8.63
2024-02-19T19:42:47.330Z,8.54
2024-02-19T19:45:49.367Z,8.49
2024-02-19T19:48:51.325Z,8.44
2024-02-19T19:51:53.272Z,8.40
2024-02-19T19:54:56.981Z,8.40
2024-02-19T19:57:59.891Z,8.32
2024-02-19T20:01:02.236Z,8.25
2024-02-19T20:04:05.344Z,8.27
2024-02-19T20:07:08.071Z,8.21
2024-02-19T20:10:14.966Z,8.18
2024-02-19T20:13:16.985Z,8.11
2024-02-19T20:16:19.599Z,8.15
2024-02-19T20:19:21.512Z,8.09
2024-02-19T20:22:23.483Z,8.05
2024-02-19T20:25:25.562Z,8.21
2024-02-19T20:28:27.542Z,8.19
2024-02-19T20:31:29.404Z,8.26
2024-02-19T20:34:34.171Z,8.23
2024-02-19T20:37:36.182Z,8.32
2024-02-19T20:40:38.017Z,8.28
2024-02-19T20:43:40.074Z,8.17
2024-02-19T20:46:41.987Z,8.15
2024-02-19T20:49:45.770Z,8.12
2024-02-19T20:52:47.631Z,8.08
2024-02-19T20:55:49.573Z,8.14
2024-02-19T20:58:51.479Z,8.11
2024-02-19T21:01:53.455Z,8.05
2024-02-19T21:04:55.329Z,8.07
2024-02-19T21:07:57.187Z,7.97
2024-02-19T21:11:03.016Z,7.97
2024-02-19T21:14:06.228Z,7.86
2024-02-19T21:17:08.020Z,7.94
2024-02-19T21:20:11.978Z,7.85
2024-02-19T21:23:14.232Z,7.69
2024-02-19T21:26:16.802Z,7.66
2024-02-19T21:29:19.514Z,7.67
2024-02-19T21:32:21.561Z,7.70
2024-02-19T21:35:23.735Z,7.58
2024-02-19T21:38:25.557Z,7.47
2024-02-19T21:41:27.368Z,7.52
2024-02-19T21:44:29.208Z,7.66
2024-02-19T21:47:31.093Z,7.66
2024-02-19T21:50:33.360Z,7.64
2024-02-19T21:53:35.173Z,7.67
2024-02-19T21:56:36.935Z,7.74
2024-02-19T21:59:38.862Z,7.64
2024-02-19T22:02:40.848Z,7.63
2024-02-19T22:05:42.608Z,7.66
2024-02-19T22:08:44.488Z,7.60
2024-02-19T22:11:46.569Z,7.51
2024-02-19T22:14:48.397Z,7.48
2024-02-19T22:17:50.259Z,7.53
2024-02-19T22:20:52.776Z,7.39
2024-02-19T22:23:54.648Z,7.44
2024-02-19T22:26:56.517Z,7.41
2024-02-19T22:29:58.267Z,7.40
2024-02-19T22:33:00.032Z,7.34
2024-02-19T22:36:01.836Z,7.17
2024-02-19T22:39:06.543Z,7.27
2024-02-19T22:42:14.830Z,7.22
2024-02-19T22:45:16.613Z,7.12
2024-02-19T22:48:18.436Z,7.13
2024-02-19T22:51:20.244Z,7.11
2024-02-19T22:54:22.063Z,7.10
2024-02-19T22:57:23.991Z,7.06
2024-02-19T23:00:40.241Z,7.01
2024-02-19T23:03:42.196Z,7.03
2024-02-19T23:06:44.081Z,6.98
2024-02-19T23:09:45.907Z,6.92
2024-02-19T23:12:47.789Z,6.91
2024-02-19T23:15:49.793Z,6.89
2024-02-19T23:18:51.765Z,6.81
2024-02-19T23:21:53.632Z,6.83
2024-02-19T23:24:55.554Z,6.76
2024-02-19T23:27:59.276Z,6.68
2024-02-19T23:31:01.143Z,6.64
2024-02-19T23:34:03.720Z,6.63
2024-02-19T23:37:06.977Z,6.52
2024-02-19T23:40:18.753Z,6.55
2024-02-19T23:43:20.703Z,6.61
2024-02-19T23:46:22.545Z,6.63
2024-02-19T23:49:24.761Z,6.65
2024-02-19T23:52:26.694Z,6.66
2024-02-19T23:55:28.811Z,6.70
2024-02-19T23:58:30.734Z,6.68
